Time;durP1;ratioP1;P1;durP2;ratioP2;P2;SDS_P1;SDS_P2;PMS_P1;PMS_P2;Temp;Humidity;BMP_temperature;BMP_pressure;BME280_temperature;BME280_humidity;BME280_pressure;Samples;Min_cycle;Max_cycle;Signal;HPM_P1;HPM_P2
2022/12/22 03:26:58;;;;;;;6.40;4.40;;;6.60;99.90;;;;;;5045919;28;20471;-59
2022/12/22 03:29:23;;;;;;;7.47;5.40;;;6.60;99.90;;;;;;5050461;28;20418;-59
2022/12/22 03:31:49;;;;;;;7.67;4.83;;;6.70;99.90;;;;;;5047233;28;20199;-59
2022/12/22 03:34:14;;;;;;;6.20;4.27;;;6.70;99.90;;;;;;5041580;28;20829;-59
2022/12/22 03:36:40;;;;;;;6.70;4.37;;;6.70;99.90;;;;;;5048189;28;20278;-59
2022/12/22 03:39:06;;;;;;;6.40;3.87;;;6.70;99.90;;;;;;5038958;28;20210;-59
2022/12/22 03:47:00;;;;;;;6.40;4.53;;;6.80;99.90;;;;;;5041993;28;20452;-58
2022/12/22 03:49:25;;;;;;;5.83;4.80;;;6.80;99.90;;;;;;5047322;28;20402;-59
2022/12/22 03:51:52;;;;;;;7.03;5.07;;;6.80;99.90;;;;;;5043994;28;20203;-59
2022/12/22 03:54:20;;;;;;;13.07;8.20;;;6.80;99.90;;;;;;5038910;28;20178;-59
2022/12/22 03:56:46;;;;;;;7.07;4.90;;;6.80;99.90;;;;;;5043410;28;20947;-59
2022/12/22 03:59:12;;;;;;;6.77;4.73;;;6.90;99.90;;;;;;5057876;28;20549;-59
2022/12/22 04:01:43;;;;;;;5.73;4.33;;;6.90;99.90;;;;;;5043914;28;22232;-59
2022/12/22 04:04:09;;;;;;;6.60;4.50;;;6.90;99.90;;;;;;5040506;28;20416;-58
2022/12/22 04:06:35;;;;;;;5.20;3.97;;;7.00;99.90;;;;;;5041894;28;20553;-59
2022/12/22 04:09:02;;;;;;;4.30;3.70;;;7.00;99.90;;;;;;5035795;28;20586;-59
2022/12/22 04:14:12;;;;;;;4.47;3.30;;;7.00;99.90;;;;;;5041136;28;20408;-58
2022/12/22 04:16:37;;;;;;;6.33;3.73;;;7.00;99.90;;;;;;5044769;28;20934;-59
2022/12/22 04:19:03;;;;;;;8.03;3.00;;;7.00;99.90;;;;;;5037393;28;20187;-59
2022/12/22 04:21:28;;;;;;;4.13;2.83;;;7.00;99.90;;;;;;5049200;28;20697;-59
2022/12/22 04:23:54;;;;;;;2.80;2.53;;;7.00;99.90;;;;;;5032721;28;20180;-59
2022/12/22 04:26:22;;;;;;;5.70;2.97;;;7.00;99.90;;;;;;5046103;28;20198;-59
2022/12/22 04:28:48;;;;;;;4.00;3.10;;;7.10;99.90;;;;;;5062486;28;20186;-59
2022/12/22 04:31:14;;;;;;;2.93;2.63;;;7.00;99.90;;;;;;5049480;28;20528;-59
2022/12/22 04:33:40;;;;;;;3.10;2.47;;;7.10;99.90;;;;;;5036401;28;20564;-59
2022/12/22 04:36:06;;;;;;;2.63;2.33;;;7.00;99.90;;;;;;5037840;28;20678;-58
2022/12/22 04:38:32;;;;;;;7.17;2.40;;;7.00;99.90;;;;;;5045424;28;20254;-59
2022/12/22 04:40:58;;;;;;;2.70;2.50;;;7.00;99.90;;;;;;5045965;28;20615;-59
2022/12/22 04:43:23;;;;;;;3.70;2.73;;;7.00;99.90;;;;;;5047300;28;20172;-59
2022/12/22 04:45:56;;;;;;;4.07;2.60;;;7.00;99.90;;;;;;5046335;28;20198;-59
2022/12/22 04:48:22;;;;;;;3.93;2.53;;;7.00;99.90;;;;;;5033330;28;20238;-59
2022/12/22 04:50:57;;;;;;;3.10;2.60;;;7.00;99.90;;;;;;5046310;28;20872;-60
2022/12/22 04:53:23;;;;;;;2.90;2.60;;;7.00;99.90;;;;;;5041349;28;20422;-59
2022/12/22 04:55:53;;;;;;;5.50;3.47;;;7.00;99.90;;;;;;5039383;28;20462;-59
2022/12/22 04:58:19;;;;;;;5.53;2.53;;;7.00;99.90;;;;;;5034824;28;20792;-58
2022/12/22 05:00:45;;;;;;;4.73;2.80;;;7.00;99.90;;;;;;5047549;28;20520;-59
2022/12/22 05:03:10;;;;;;;2.80;2.53;;;7.00;99.90;;;;;;5047334;28;20218;-59
2022/12/22 05:05:36;;;;;;;6.60;2.80;;;7.00;99.90;;;;;;5036994;28;20176;-59
2022/12/22 05:08:03;;;;;;;5.13;3.17;;;7.00;99.90;;;;;;5043359;28;20257;-59
2022/12/22 05:10:29;;;;;;;5.87;3.30;;;7.00;99.90;;;;;;5045637;28;20196;-59
2022/12/22 05:12:55;;;;;;;5.20;2.77;;;7.00;99.90;;;;;;5045971;28;20491;-59
2022/12/22 05:15:26;;;;;;;4.40;3.10;;;7.00;99.90;;;;;;5028482;28;20438;-59
2022/12/22 05:17:52;;;;;;;4.90;2.93;;;7.00;99.90;;;;;;5042733;28;20174;-59
2022/12/22 05:20:18;;;;;;;8.33;3.20;;;7.00;99.90;;;;;;5033044;28;20442;-60
2022/12/22 05:22:44;;;;;;;10.40;3.33;;;7.00;99.90;;;;;;5043397;28;20437;-60
2022/12/22 05:25:10;;;;;;;4.00;3.20;;;7.00;99.90;;;;;;5047589;28;20215;-59
2022/12/22 05:27:36;;;;;;;4.07;2.70;;;7.00;99.90;;;;;;5045397;28;20457;-60
2022/12/22 05:30:02;;;;;;;5.10;3.20;;;7.00;99.90;;;;;;5049689;28;20452;-59
2022/12/22 05:32:31;;;;;;;4.30;3.27;;;7.00;99.90;;;;;;5046753;28;20171;-59
2022/12/22 05:34:56;;;;;;;9.33;3.23;;;7.00;99.90;;;;;;5045634;28;20425;-60
2022/12/22 05:37:22;;;;;;;9.20;3.20;;;7.00;99.90;;;;;;5043807;28;20428;-60
2022/12/22 05:39:47;;;;;;;5.47;2.53;;;7.00;99.90;;;;;;5044626;28;20190;-60
2022/12/22 05:42:13;;;;;;;6.30;2.30;;;6.90;99.90;;;;;;5037056;28;20176;-59
2022/12/22 05:44:38;;;;;;;6.43;3.00;;;6.90;99.90;;;;;;5048677;28;20177;-59
2022/12/22 05:47:04;;;;;;;5.40;3.10;;;6.90;99.90;;;;;;5049029;28;20623;-59
2022/12/22 05:49:30;;;;;;;7.57;2.90;;;6.90;99.90;;;;;;5040841;28;20184;-59
2022/12/22 05:51:56;;;;;;;6.90;2.83;;;6.90;99.90;;;;;;5036315;28;20218;-61
2022/12/22 05:54:21;;;;;;;5.60;3.60;;;6.90;99.90;;;;;;5043655;28;20225;-59
2022/12/22 05:56:47;;;;;;;2.80;2.60;;;6.90;99.90;;;;;;5047210;28;20445;-60
2022/12/22 05:59:13;;;;;;;6.20;2.90;;;6.90;99.90;;;;;;5040379;28;20176;-60
2022/12/22 06:01:38;;;;;;;4.03;2.60;;;6.90;99.90;;;;;;5039176;28;20285;-60
2022/12/22 06:04:04;;;;;;;5.40;2.67;;;6.90;99.90;;;;;;5051792;28;20205;-59
2022/12/22 06:06:29;;;;;;;4.50;2.33;;;6.90;99.90;;;;;;5052301;28;20175;-59
2022/12/22 06:08:55;;;;;;;5.87;2.97;;;6.90;99.90;;;;;;5043585;28;20183;-61
2022/12/22 06:11:21;;;;;;;4.87;2.37;;;6.90;99.90;;;;;;5038377;28;20750;-59
2022/12/22 06:13:46;;;;;;;3.20;2.40;;;6.90;99.90;;;;;;5050309;28;20178;-59
2022/12/22 06:16:12;;;;;;;5.93;2.60;;;6.90;99.90;;;;;;5052565;28;20187;-59
2022/12/22 06:18:37;;;;;;;3.53;2.10;;;6.90;99.90;;;;;;5051121;28;20276;-59
2022/12/22 06:21:03;;;;;;;7.80;2.43;;;6.90;99.90;;;;;;5050202;28;20192;-59
2022/12/22 06:23:29;;;;;;;12.30;2.30;;;7.00;99.90;;;;;;5050737;28;20171;-59
2022/12/22 06:25:59;;;;;;;6.17;2.20;;;7.00;99.90;;;;;;5049073;28;20433;-59
2022/12/22 06:28:24;;;;;;;5.43;1.80;;;7.00;99.90;;;;;;5047720;28;20584;-59
2022/12/22 06:30:50;;;;;;;1.80;1.67;;;7.00;99.90;;;;;;5049214;28;20441;-60
2022/12/22 06:33:16;;;;;;;6.93;2.10;;;7.00;99.90;;;;;;5045987;28;20304;-59
2022/12/22 06:35:41;;;;;;;7.63;1.47;;;7.00;99.90;;;;;;5041554;28;20183;-60
2022/12/22 06:38:07;;;;;;;7.87;2.10;;;7.00;99.90;;;;;;5064302;28;20193;-59
2022/12/22 06:40:33;;;;;;;4.83;1.73;;;7.10;99.90;;;;;;5067069;28;20306;-60
2022/12/22 06:43:07;;;;;;;9.70;1.97;;;7.10;99.90;;;;;;5048782;28;20258;-60
2022/12/22 06:45:33;;;;;;;11.53;2.03;;;7.10;99.90;;;;;;5039524;28;20187;-60
2022/12/22 06:47:59;;;;;;;5.20;2.00;;;7.10;99.90;;;;;;5050372;28;20847;-60
2022/12/22 06:50:24;;;;;;;7.70;2.33;;;7.00;99.90;;;;;;5039041;28;20442;-59
2022/12/22 06:52:50;;;;;;;5.63;2.20;;;7.00;99.90;;;;;;5045370;28;20183;-59
2022/12/22 06:55:16;;;;;;;9.60;2.43;;;7.00;99.90;;;;;;5048829;28;20177;-59
2022/12/22 06:57:42;;;;;;;7.67;2.13;;;7.00;99.90;;;;;;5046120;28;20830;-59
2022/12/22 07:00:08;;;;;;;6.43;1.87;;;7.00;99.90;;;;;;5041832;28;20209;-59
2022/12/22 07:02:33;;;;;;;4.53;2.30;;;7.00;99.90;;;;;;5061813;28;20553;-59
2022/12/22 07:04:59;;;;;;;9.10;3.20;;;6.90;99.90;;;;;;5036090;28;20887;-60
2022/12/22 07:07:25;;;;;;;4.47;2.07;;;6.90;99.90;;;;;;5048356;28;20214;-59
2022/12/22 07:09:50;;;;;;;9.67;2.37;;;6.90;99.90;;;;;;5043457;28;20464;-62
2022/12/22 07:12:16;;;;;;;7.07;2.30;;;6.80;99.90;;;;;;5045349;28;20702;-59
2022/12/22 07:14:42;;;;;;;15.77;3.07;;;6.80;99.90;;;;;;5047726;28;20183;-59
2022/12/22 07:17:08;;;;;;;15.63;2.70;;;6.80;99.90;;;;;;5045882;28;20267;-59
2022/12/22 07:19:33;;;;;;;17.87;2.40;;;6.80;99.90;;;;;;5043059;28;20229;-58
2022/12/22 07:21:59;;;;;;;10.80;2.37;;;6.80;99.90;;;;;;5050554;28;20453;-59
2022/12/22 07:24:25;;;;;;;10.10;2.70;;;6.80;99.90;;;;;;5040809;28;20190;-59
2022/12/22 07:26:51;;;;;;;4.67;2.40;;;6.80;99.90;;;;;;5041763;28;20773;-60
2022/12/22 07:29:17;;;;;;;9.93;3.03;;;6.80;99.90;;;;;;5037430;28;20441;-59
2022/12/22 07:31:43;;;;;;;11.17;2.50;;;6.80;99.90;;;;;;5035752;28;20520;-59
2022/12/22 07:34:08;;;;;;;10.00;2.83;;;6.90;99.90;;;;;;5036348;28;20230;-59
2022/12/22 07:36:34;;;;;;;8.30;2.33;;;7.00;99.90;;;;;;5039655;28;20187;-59
2022/12/22 07:38:59;;;;;;;8.10;2.30;;;7.00;99.90;;;;;;5048087;28;20265;-60
2022/12/22 07:44:09;;;;;;;7.00;1.97;;;7.10;99.90;;;;;;5035244;28;20217;-59
2022/12/22 07:46:37;;;;;;;9.60;2.53;;;7.10;99.90;;;;;;5041767;28;20468;-59
2022/12/22 07:51:51;;;;;;;9.00;3.50;;;7.20;99.90;;;;;;5046997;28;20496;-60
2022/12/22 07:54:17;;;;;;;15.30;2.27;;;7.30;99.90;;;;;;5037195;28;20928;-61
2022/12/22 07:56:44;;;;;;;5.93;2.30;;;7.30;99.90;;;;;;5043499;28;20433;-60
2022/12/22 07:59:11;;;;;;;7.40;1.90;;;7.30;99.90;;;;;;5038597;28;20440;-61
2022/12/22 08:01:39;;;;;;;10.63;3.30;;;7.30;99.90;;;;;;5042392;28;20492;-58
2022/12/22 08:04:06;;;;;;;10.00;2.40;;;7.30;99.90;;;;;;5039822;28;20545;-55
2022/12/22 08:06:33;;;;;;;8.33;2.40;;;7.30;99.90;;;;;;5035913;28;20466;-55
2022/12/22 08:09:00;;;;;;;10.00;2.50;;;7.40;99.90;;;;;;5049322;28;21003;-55
2022/12/22 08:11:25;;;;;;;8.40;3.03;;;7.40;99.90;;;;;;5035529;28;20449;-55
2022/12/22 08:13:51;;;;;;;8.03;2.03;;;7.40;99.90;;;;;;5038638;28;20487;-60
2022/12/22 08:16:18;;;;;;;6.63;2.90;;;7.50;99.90;;;;;;5039333;28;20168;-60
2022/12/22 08:18:44;;;;;;;11.00;3.10;;;7.50;99.90;;;;;;5046800;28;20164;-60
2022/12/22 08:21:09;;;;;;;11.93;3.73;;;7.60;99.90;;;;;;5041649;28;20446;-60
2022/12/22 08:23:35;;;;;;;7.93;2.13;;;7.60;99.90;;;;;;5044989;28;20171;-60
2022/12/22 08:26:04;;;;;;;9.23;2.60;;;7.70;99.90;;;;;;5035603;28;20261;-61
2022/12/22 08:28:32;;;;;;;9.80;2.40;;;7.70;99.90;;;;;;5041765;28;20457;-59
2022/12/22 08:30:59;;;;;;;16.47;2.97;;;7.80;99.90;;;;;;5037552;28;20954;-60
2022/12/22 08:33:25;;;;;;;11.93;2.83;;;7.80;99.90;;;;;;5041339;28;20533;-60
2022/12/22 08:35:50;;;;;;;6.57;2.63;;;8.00;99.90;;;;;;5039261;28;20915;-60
2022/12/22 08:38:16;;;;;;;5.70;1.80;;;8.00;99.90;;;;;;5054241;28;20180;-56
2022/12/22 08:40:43;;;;;;;7.13;2.30;;;8.20;99.90;;;;;;5039592;28;20302;-61
2022/12/22 08:43:09;;;;;;;8.03;3.40;;;8.20;99.90;;;;;;5039462;28;20187;-60
2022/12/22 08:45:35;;;;;;;6.30;2.10;;;8.30;99.90;;;;;;5040098;28;20525;-60
2022/12/22 08:48:01;;;;;;;14.00;2.37;;;8.30;99.90;;;;;;5037828;28;20941;-61
2022/12/22 08:50:26;;;;;;;9.83;2.20;;;8.40;99.90;;;;;;5040250;28;20197;-61
2022/12/22 08:52:52;;;;;;;16.50;3.10;;;8.30;99.90;;;;;;5036967;28;20182;-61
2022/12/22 08:55:17;;;;;;;11.70;2.77;;;8.30;99.90;;;;;;5042740;28;20225;-60
2022/12/22 08:57:47;;;;;;;13.50;2.10;;;8.30;99.90;;;;;;5034580;28;20316;-60
2022/12/22 09:00:14;;;;;;;4.20;1.80;;;8.20;99.90;;;;;;5040261;28;20211;-62
2022/12/22 09:02:39;;;;;;;13.17;2.30;;;8.10;99.90;;;;;;5036165;28;20426;-60
2022/12/22 09:05:05;;;;;;;4.77;2.00;;;8.10;99.90;;;;;;5041848;28;20830;-61
2022/12/22 09:07:31;;;;;;;5.80;2.17;;;8.00;99.90;;;;;;5037199;28;20198;-60
2022/12/22 09:09:57;;;;;;;8.47;1.97;;;8.00;99.90;;;;;;5034819;28;20255;-61
2022/12/22 09:12:23;;;;;;;6.20;2.03;;;8.00;99.90;;;;;;5042826;28;20753;-61
2022/12/22 09:14:48;;;;;;;8.40;2.03;;;8.00;99.90;;;;;;5045484;28;20484;-61
2022/12/22 09:17:14;;;;;;;6.80;1.80;;;8.00;99.90;;;;;;5040180;28;20175;-64
2022/12/22 09:19:39;;;;;;;8.40;2.23;;;8.00;99.90;;;;;;5028644;28;20669;-60
2022/12/22 09:22:05;;;;;;;6.53;2.67;;;8.00;99.90;;;;;;5037699;28;20237;-60
2022/12/22 09:24:31;;;;;;;5.57;1.93;;;8.00;99.90;;;;;;5040486;28;20183;-61
2022/12/22 09:26:56;;;;;;;7.60;1.80;;;7.90;99.90;;;;;;5036613;28;20195;-61
2022/12/22 09:29:22;;;;;;;6.80;2.57;;;7.90;99.90;;;;;;5029818;28;20584;-59
2022/12/22 09:31:47;;;;;;;8.13;2.17;;;7.90;99.90;;;;;;5038237;28;20245;-60
2022/12/22 09:34:13;;;;;;;7.40;2.33;;;8.00;99.90;;;;;;5050561;28;20178;-60
2022/12/22 09:36:40;;;;;;;9.63;2.77;;;8.00;99.90;;;;;;5048214;28;20171;-60
2022/12/22 09:39:08;;;;;;;6.47;2.00;;;8.00;99.90;;;;;;5039621;28;20441;-60
2022/12/22 09:41:45;;;;;;;7.17;2.33;;;8.10;99.90;;;;;;5039558;28;20465;-61
2022/12/22 09:44:32;;;;;;;13.40;2.30;;;8.10;99.90;;;;;;5043883;28;20441;-61
2022/12/22 09:47:04;;;;;;;5.77;1.87;;;8.20;99.90;;;;;;5042605;28;20457;-60
2022/12/22 09:49:30;;;;;;;2.87;1.63;;;8.20;99.90;;;;;;5045577;28;20438;-60
2022/12/22 09:52:01;;;;;;;5.93;1.80;;;8.20;99.90;;;;;;5042934;28;20457;-61
2022/12/22 09:54:28;;;;;;;9.30;2.03;;;8.20;99.90;;;;;;5042519;28;20936;-60
2022/12/22 09:56:54;;;;;;;6.37;1.77;;;8.20;99.90;;;;;;5043639;28;20468;-61
2022/12/22 09:59:21;;;;;;;4.67;1.80;;;8.30;99.90;;;;;;5045751;28;20801;-60
2022/12/22 10:02:31;;;;;;;12.63;2.77;;;8.30;99.90;;;;;;5043337;28;20471;-60
2022/12/22 10:05:37;;;;;;;11.03;2.30;;;8.30;99.90;;;;;;5001898;28;20440;-61
2022/12/22 10:08:17;;;;;;;9.60;2.10;;;8.30;99.90;;;;;;5043959;28;20477;-60
2022/12/22 10:10:43;;;;;;;5.13;1.80;;;8.30;99.90;;;;;;5039660;28;20449;-61
2022/12/22 10:13:18;;;;;;;6.53;2.43;;;8.30;99.90;;;;;;5043757;28;20461;-61
2022/12/22 10:15:44;;;;;;;9.47;2.33;;;8.30;99.90;;;;;;5044505;28;20171;-61
2022/12/22 10:18:16;;;;;;;8.10;2.27;;;8.30;99.90;;;;;;5042717;28;20441;-61
2022/12/22 10:20:45;;;;;;;13.17;2.27;;;8.40;99.90;;;;;;5044882;28;21523;-60
2022/12/22 10:23:27;;;;;;;14.80;2.13;;;8.40;99.90;;;;;;5041833;28;21082;-60
2022/12/22 10:25:55;;;;;;;6.80;2.50;;;8.50;99.90;;;;;;5036951;28;21214;-62
2022/12/22 10:28:24;;;;;;;12.00;2.80;;;8.50;99.90;;;;;;5045989;28;20489;-60
2022/12/22 10:31:19;;;;;;;9.87;3.00;;;8.50;99.90;;;;;;5040039;28;20449;-61
2022/12/22 10:33:48;;;;;;;8.33;4.03;;;8.60;99.90;;;;;;5040895;28;20442;-62
2022/12/22 10:36:21;;;;;;;7.60;2.50;;;8.50;99.90;;;;;;5044262;28;20432;-61
2022/12/22 10:39:05;;;;;;;11.90;2.60;;;8.50;99.90;;;;;;5043310;28;20477;-61
2022/12/22 10:41:36;;;;;;;12.63;2.63;;;8.50;99.90;;;;;;5057026;28;20564;-61
2022/12/22 10:44:09;;;;;;;7.97;2.40;;;8.50;99.90;;;;;;5044381;28;20453;-59
2022/12/22 10:46:37;;;;;;;7.90;2.63;;;8.50;99.90;;;;;;5041957;28;20436;-61
2022/12/22 10:49:47;;;;;;;15.33;2.93;;;8.40;99.90;;;;;;5041939;28;20565;-60
2022/12/22 10:52:20;;;;;;;8.90;2.80;;;8.50;99.90;;;;;;5037369;28;20445;-63
2022/12/22 10:54:46;;;;;;;10.37;2.60;;;8.40;99.90;;;;;;5040378;28;20434;-61
2022/12/22 10:57:12;;;;;;;25.00;3.03;;;8.40;99.90;;;;;;5046045;28;20447;-62
2022/12/22 10:59:48;;;;;;;9.80;2.90;;;8.40;99.90;;;;;;5050507;28;20520;-62
2022/12/22 11:02:20;;;;;;;8.80;2.70;;;8.40;99.90;;;;;;5041050;28;20793;-61
2022/12/22 11:04:46;;;;;;;10.53;2.60;;;8.40;99.90;;;;;;5038954;28;20472;-60
2022/12/22 11:07:12;;;;;;;11.73;2.60;;;8.40;99.90;;;;;;5048888;28;20465;-61
2022/12/22 11:09:37;;;;;;;8.60;2.70;;;8.50;99.90;;;;;;5045001;28;20434;-61
2022/12/22 11:12:28;;;;;;;10.13;2.60;;;8.50;99.90;;;;;;5039858;28;20245;-60
2022/12/22 11:15:20;;;;;;;12.00;2.80;;;8.50;99.90;;;;;;5045146;28;20254;-60
2022/12/22 11:17:54;;;;;;;9.73;2.03;;;8.50;99.90;;;;;;5043297;28;20437;-60
2022/12/22 11:20:26;;;;;;;13.43;2.93;;;8.50;99.90;;;;;;5046508;28;20453;-61
2022/12/22 11:23:07;;;;;;;6.80;2.13;;;8.50;99.90;;;;;;5049997;28;20428;-61
2022/12/22 11:26:15;;;;;;;8.60;2.23;;;8.60;99.90;;;;;;5047830;28;20495;-61
2022/12/22 11:29:35;;;;;;;13.57;2.70;;;8.50;99.90;;;;;;5040364;28;20461;-59
2022/12/22 11:32:31;;;;;;;8.03;2.20;;;8.50;99.90;;;;;;4980651;28;20456;-61
2022/12/22 11:35:23;;;;;;;7.40;2.23;;;8.60;99.90;;;;;;5039067;28;20492;-60
2022/12/22 11:37:55;;;;;;;12.63;2.80;;;8.60;99.90;;;;;;5024423;28;20449;-60
2022/12/22 11:40:29;;;;;;;6.80;2.07;;;8.70;99.90;;;;;;5045950;28;20511;-61
2022/12/22 11:43:16;;;;;;;15.43;2.87;;;8.70;99.90;;;;;;5042441;28;21840;-59
2022/12/22 11:45:57;;;;;;;16.50;2.90;;;8.70;99.90;;;;;;5056253;28;20429;-60
2022/12/22 11:48:38;;;;;;;6.33;2.40;;;8.70;99.90;;;;;;5044687;28;20464;-60
2022/12/22 11:51:31;;;;;;;15.53;2.73;;;8.70;99.90;;;;;;5045055;28;20453;-60
2022/12/22 11:54:33;;;;;;;10.53;3.70;;;8.70;99.90;;;;;;5039059;28;20426;-60
2022/12/22 11:57:33;;;;;;;8.90;3.00;;;8.70;99.90;;;;;;5037990;28;20462;-57
2022/12/22 12:00:17;;;;;;;13.07;2.80;;;8.70;99.90;;;;;;5033712;28;20444;-59
2022/12/22 12:03:03;;;;;;;10.20;2.50;;;8.70;99.90;;;;;;5036364;28;20437;-56
2022/12/22 12:05:50;;;;;;;8.73;2.10;;;8.80;99.90;;;;;;5038337;28;22085;-60
2022/12/22 12:08:34;;;;;;;7.67;2.70;;;8.80;99.90;;;;;;5041441;28;20470;-62
2022/12/22 12:11:16;;;;;;;12.80;2.53;;;8.90;99.90;;;;;;5042898;28;20441;-61
2022/12/22 12:14:05;;;;;;;10.13;2.07;;;9.00;99.90;;;;;;5040708;28;20508;-62
2022/12/22 12:16:52;;;;;;;7.90;1.90;;;9.10;99.90;;;;;;5008577;28;20806;-61
2022/12/22 12:19:32;;;;;;;7.07;2.17;;;9.10;99.90;;;;;;5044218;28;20472;-61
2022/12/22 12:22:03;;;;;;;7.13;1.70;;;9.20;99.90;;;;;;5040324;28;20525;-60
2022/12/22 12:24:41;;;;;;;4.40;1.90;;;9.20;99.90;;;;;;5040285;28;20920;-61
2022/12/22 12:27:33;;;;;;;7.97;2.27;;;9.30;99.90;;;;;;5047325;28;20472;-60
2022/12/22 12:30:18;;;;;;;6.73;2.03;;;9.40;99.90;;;;;;5043952;28;20426;-60
2022/12/22 12:32:47;;;;;;;15.50;3.13;;;9.40;99.90;;;;;;5042249;28;20429;-60
2022/12/22 12:35:27;;;;;;;8.63;2.13;;;9.40;99.90;;;;;;5047635;28;20428;-61
2022/12/22 12:38:02;;;;;;;11.50;2.50;;;9.40;99.90;;;;;;5041768;28;20444;-61
2022/12/22 12:40:53;;;;;;;17.50;2.40;;;9.50;99.90;;;;;;5036310;28;20556;-60
2022/12/22 12:43:21;;;;;;;9.87;3.13;;;9.60;99.90;;;;;;5037281;28;20437;-62
2022/12/22 12:45:47;;;;;;;16.13;3.53;;;9.70;99.90;;;;;;5036132;28;20431;-60
2022/12/22 12:48:19;;;;;;;19.53;3.10;;;9.70;99.90;;;;;;5041351;28;20474;-60
2022/12/22 12:50:52;;;;;;;20.20;2.87;;;9.80;99.90;;;;;;5040868;28;20448;-59
2022/12/22 12:53:23;;;;;;;16.80;2.90;;;9.80;99.90;;;;;;5042401;28;20431;-60
2022/12/22 12:55:49;;;;;;;21.17;3.07;;;9.80;99.90;;;;;;5040838;28;20426;-60
2022/12/22 12:58:34;;;;;;;11.40;3.50;;;9.80;99.90;;;;;;5044219;28;20774;-61
2022/12/22 13:01:01;;;;;;;17.43;3.27;;;9.80;99.90;;;;;;5030892;28;20446;-60
2022/12/22 13:03:27;;;;;;;18.63;3.30;;;9.70;99.90;;;;;;5041964;28;20461;-60
2022/12/22 13:05:54;;;;;;;13.10;3.73;;;9.70;99.90;;;;;;5037154;28;20550;-61
2022/12/22 13:08:26;;;;;;;11.03;2.50;;;9.70;99.90;;;;;;5047262;28;20333;-61
2022/12/22 13:10:54;;;;;;;14.90;2.87;;;9.60;99.90;;;;;;5041593;28;20534;-61
2022/12/22 13:13:25;;;;;;;16.33;3.83;;;9.60;99.90;;;;;;5040258;28;20465;-61
2022/12/22 13:16:00;;;;;;;14.83;3.90;;;9.60;99.90;;;;;;5040355;28;20579;-55
2022/12/22 13:18:27;;;;;;;12.80;2.83;;;9.60;99.90;;;;;;5041377;28;20433;-61
2022/12/22 13:21:07;;;;;;;11.23;3.43;;;9.60;99.90;;;;;;5041549;28;20445;-60
2022/12/22 13:23:59;;;;;;;12.27;2.93;;;9.60;99.90;;;;;;5048594;28;20428;-61
2022/12/22 13:26:31;;;;;;;12.77;3.20;;;9.60;99.90;;;;;;5037564;28;20436;-61
2022/12/22 13:29:00;;;;;;;9.93;2.90;;;9.70;99.90;;;;;;5049353;28;20457;-61
2022/12/22 13:31:39;;;;;;;12.03;2.83;;;9.70;99.90;;;;;;5041711;28;20991;-60
2022/12/22 13:34:35;;;;;;;17.97;4.30;;;9.70;99.90;;;;;;5038957;28;20426;-61
2022/12/22 13:37:11;;;;;;;17.50;3.40;;;9.70;99.90;;;;;;5044444;28;20427;-61
2022/12/22 13:39:36;;;;;;;7.77;2.40;;;9.70;99.90;;;;;;5040736;28;20443;-60
2022/12/22 13:42:05;;;;;;;6.40;2.07;;;9.70;99.90;;;;;;5040888;28;20453;-61
2022/12/22 13:44:32;;;;;;;4.97;2.10;;;9.60;99.90;;;;;;5041884;28;20182;-61
2022/12/22 13:47:11;;;;;;;9.00;2.60;;;9.60;99.90;;;;;;5045894;28;20456;-60
2022/12/22 13:49:40;;;;;;;7.43;2.07;;;9.60;99.90;;;;;;5043761;28;20422;-60
2022/12/22 13:52:10;;;;;;;6.60;1.87;;;9.60;99.90;;;;;;5047890;28;20457;-61
2022/12/22 13:54:37;;;;;;;10.00;2.07;;;9.60;99.90;;;;;;5043470;28;20441;-61
2022/12/22 13:57:12;;;;;;;6.70;2.30;;;9.60;99.90;;;;;;5045698;28;20449;-61
2022/12/22 13:59:43;;;;;;;4.77;1.70;;;9.50;99.90;;;;;;5060250;28;20520;-60
2022/12/22 14:02:08;;;;;;;10.27;2.00;;;9.50;99.90;;;;;;5048381;28;20504;-61
2022/12/22 14:04:36;;;;;;;6.40;2.17;;;9.40;99.90;;;;;;5035930;28;20483;-60
2022/12/22 14:07:16;;;;;;;8.63;2.37;;;9.40;99.90;;;;;;5035507;28;20208;-61
2022/12/22 14:09:49;;;;;;;8.27;1.97;;;9.40;99.90;;;;;;5037228;28;20801;-60
2022/12/22 14:12:19;;;;;;;9.93;2.10;;;9.30;99.90;;;;;;5040803;28;20469;-60
2022/12/22 14:14:47;;;;;;;6.87;2.50;;;9.30;99.90;;;;;;5037922;28;20426;-61
2022/12/22 14:17:39;;;;;;;12.03;2.30;;;9.30;99.90;;;;;;5040312;28;20482;-61
2022/12/22 14:20:23;;;;;;;7.63;2.20;;;9.20;99.90;;;;;;5037739;28;20458;-61
2022/12/22 14:23:02;;;;;;;6.13;1.87;;;9.20;99.90;;;;;;5042350;28;20417;-60
2022/12/22 14:25:32;;;;;;;9.37;2.57;;;9.10;99.90;;;;;;5039373;28;20417;-61
2022/12/22 14:27:58;;;;;;;8.97;2.27;;;9.10;99.90;;;;;;5042395;28;20478;-60
2022/12/22 14:30:33;;;;;;;5.70;1.90;;;9.00;99.90;;;;;;5040789;28;20449;-61
2022/12/22 14:33:26;;;;;;;12.93;2.30;;;9.00;99.90;;;;;;5043986;28;20429;-60
2022/12/22 14:36:04;;;;;;;8.17;2.87;;;8.90;99.90;;;;;;5046435;28;20915;-61
2022/12/22 14:38:43;;;;;;;10.50;3.00;;;8.80;99.90;;;;;;5042695;28;20464;-60
2022/12/22 14:41:45;;;;;;;11.47;2.43;;;8.80;99.90;;;;;;5035923;28;21089;-60
2022/12/22 14:44:15;;;;;;;10.93;3.07;;;8.70;99.90;;;;;;5038383;28;20568;-60
2022/12/22 14:46:42;;;;;;;8.80;2.97;;;8.60;99.90;;;;;;5032521;28;20434;-60
2022/12/22 14:49:16;;;;;;;14.60;3.57;;;8.60;99.90;;;;;;5043224;28;20436;-60
2022/12/22 14:51:43;;;;;;;10.80;3.27;;;8.50;99.90;;;;;;5041284;28;20480;-61
2022/12/22 14:54:19;;;;;;;15.60;2.97;;;8.50;99.90;;;;;;5040567;28;20425;-60
2022/12/22 14:56:51;;;;;;;12.50;3.60;;;8.40;99.90;;;;;;5041892;28;20421;-61
2022/12/22 14:59:26;;;;;;;8.80;3.80;;;8.40;99.90;;;;;;5046454;28;20426;-61
2022/12/22 15:02:17;;;;;;;10.30;4.07;;;8.40;99.90;;;;;;5032310;28;20500;-62
2022/12/22 15:04:43;;;;;;;20.20;3.90;;;8.30;99.90;;;;;;5037312;28;20801;-61
2022/12/22 15:07:18;;;;;;;12.87;4.60;;;8.30;99.90;;;;;;5044972;28;20996;-60
2022/12/22 15:09:44;;;;;;;15.97;4.60;;;8.20;99.90;;;;;;5044070;28;20181;-59
2022/12/22 15:12:17;;;;;;;20.03;4.73;;;8.20;99.90;;;;;;5035292;28;20425;-61
2022/12/22 15:14:46;;;;;;;13.30;3.97;;;8.20;99.90;;;;;;5037427;28;20168;-62
2022/12/22 15:17:24;;;;;;;12.90;4.03;;;8.10;99.90;;;;;;5040023;28;20988;-62
2022/12/22 15:19:50;;;;;;;16.17;4.13;;;8.10;99.90;;;;;;5039875;28;20433;-61
2022/12/22 15:22:16;;;;;;;13.87;4.93;;;8.10;99.90;;;;;;5040034;28;20438;-61
2022/12/22 15:24:42;;;;;;;23.60;4.50;;;8.10;99.90;;;;;;5044732;28;20431;-61
2022/12/22 15:27:07;;;;;;;10.33;4.13;;;8.10;99.90;;;;;;5044590;28;20206;-60
2022/12/22 15:29:33;;;;;;;15.90;4.37;;;8.00;99.90;;;;;;5054050;28;20645;-60
2022/12/22 15:31:59;;;;;;;22.73;5.93;;;8.00;99.90;;;;;;5034301;28;20199;-60
2022/12/22 15:34:28;;;;;;;15.00;5.40;;;8.00;99.90;;;;;;5027680;28;20190;-60
2022/12/22 15:36:54;;;;;;;12.97;5.33;;;7.90;99.90;;;;;;5040823;28;20421;-60
2022/12/22 15:39:21;;;;;;;21.73;6.57;;;7.90;99.90;;;;;;5040815;28;20484;-61
2022/12/22 15:41:47;;;;;;;24.30;5.50;;;7.90;99.90;;;;;;5039540;28;20455;-61
2022/12/22 15:44:13;;;;;;;19.97;5.57;;;7.80;99.90;;;;;;5032014;28;20462;-61
2022/12/22 15:46:42;;;;;;;19.23;5.67;;;7.80;99.90;;;;;;5042200;28;20425;-60
2022/12/22 15:49:24;;;;;;;23.70;7.97;;;7.80;99.90;;;;;;5039663;28;20971;-61
2022/12/22 15:51:56;;;;;;;23.13;7.43;;;7.70;99.90;;;;;;5037506;28;20531;-61
2022/12/22 15:54:24;;;;;;;24.60;7.30;;;7.70;99.90;;;;;;5033832;28;20440;-60
2022/12/22 15:56:51;;;;;;;24.33;8.93;;;7.70;99.90;;;;;;5035264;28;20648;-57
2022/12/22 15:59:19;;;;;;;18.17;7.93;;;7.70;99.90;;;;;;5035021;28;20497;-55
2022/12/22 16:01:45;;;;;;;24.80;8.80;;;7.60;99.90;;;;;;5035605;28;20553;-58
2022/12/22 16:04:11;;;;;;;17.10;7.47;;;7.60;99.90;;;;;;5032645;28;20425;-57
2022/12/22 16:06:36;;;;;;;22.47;8.23;;;7.60;99.90;;;;;;5035663;28;20231;-56
2022/12/22 16:09:06;;;;;;;32.10;10.13;;;7.50;99.90;;;;;;5045181;28;20553;-58
2022/12/22 16:11:31;;;;;;;25.43;9.50;;;7.50;99.90;;;;;;5037236;28;20852;-58
2022/12/22 16:13:57;;;;;;;26.53;11.27;;;7.50;99.90;;;;;;5048405;28;20453;-60
2022/12/22 16:16:23;;;;;;;33.90;13.27;;;7.50;99.90;;;;;;5040683;28;20270;-56
2022/12/22 16:18:49;;;;;;;24.53;11.50;;;7.50;99.90;;;;;;5034313;28;20189;-59
2022/12/22 16:21:20;;;;;;;46.80;13.90;;;7.50;99.90;;;;;;5036788;28;20653;-59
2022/12/22 16:23:48;;;;;;;31.17;12.63;;;7.50;99.90;;;;;;5035321;28;20417;-60
2022/12/22 16:26:18;;;;;;;22.57;8.60;;;7.50;99.90;;;;;;5040862;28;20441;-58
2022/12/22 16:28:43;;;;;;;36.83;9.20;;;7.50;99.90;;;;;;5035006;28;21031;-59
2022/12/22 16:31:16;;;;;;;23.67;8.70;;;7.40;99.90;;;;;;5039918;28;20454;-59
2022/12/22 16:33:42;;;;;;;36.10;8.87;;;7.40;99.90;;;;;;5046345;28;20258;-59
2022/12/22 16:36:08;;;;;;;37.53;11.43;;;7.40;99.90;;;;;;5041356;28;20431;-59
2022/12/22 16:38:34;;;;;;;43.50;11.70;;;7.40;99.90;;;;;;5039981;28;20179;-59
2022/12/22 16:41:02;;;;;;;35.80;13.20;;;7.40;99.90;;;;;;5035461;28;20588;-60
2022/12/22 16:43:34;;;;;;;31.10;11.63;;;7.40;99.90;;;;;;5036008;28;20430;-59
2022/12/22 16:45:59;;;;;;;27.57;9.30;;;7.40;99.90;;;;;;5035911;28;20470;-60
2022/12/22 16:48:32;;;;;;;26.30;9.60;;;7.50;99.90;;;;;;5032020;28;20588;-59
2022/12/22 16:50:58;;;;;;;16.03;6.77;;;7.50;99.90;;;;;;5037639;28;20223;-61